Time;durP1;ratioP1;P1;durP2;ratioP2;P2;SDS_P1;SDS_P2;PMS_P1;PMS_P2;Temp;Humidity;BMP_temperature;BMP_pressure;BME280_temperature;BME280_humidity;BME280_pressure;Samples;Min_cycle;Max_cycle;Signal;HPM_P1;HPM_P2
2022/07/13 02:47:49;;;;;;;1.70;0.50;;;16.20;76.90;;;;;;5195218;23;88416;-69
2022/07/13 02:50:15;;;;;;;1.30;0.40;;;16.30;76.80;;;;;;4899593;28;87100;-70
2022/07/13 02:52:41;;;;;;;3.28;0.60;;;16.30;76.70;;;;;;4899214;28;86303;-70
2022/07/13 02:55:07;;;;;;;1.63;0.40;;;16.30;76.80;;;;;;4900199;28;88121;-69
2022/07/13 02:57:34;;;;;;;1.45;0.50;;;16.30;77.20;;;;;;4900405;28;87002;-70
2022/07/13 03:00:00;;;;;;;1.73;0.50;;;16.20;77.90;;;;;;4897999;28;87943;-69
2022/07/13 03:02:26;;;;;;;1.48;0.43;;;16.20;78.40;;;;;;4892731;28;86988;-70
2022/07/13 03:04:52;;;;;;;4.63;0.40;;;16.10;78.40;;;;;;4894757;28;87111;-69
2022/07/13 03:07:17;;;;;;;4.03;0.70;;;16.10;78.30;;;;;;4900886;28;86984;-70
2022/07/13 03:09:43;;;;;;;3.05;0.68;;;16.00;78.80;;;;;;4902276;28;86960;-71
2022/07/13 03:12:09;;;;;;;5.10;0.50;;;15.90;79.90;;;;;;4901850;28;86925;-70
2022/07/13 03:14:35;;;;;;;2.00;0.43;;;15.80;80.50;;;;;;4900764;28;87450;-69
2022/07/13 03:17:02;;;;;;;1.95;0.60;;;15.60;81.00;;;;;;4887841;28;87986;-72
2022/07/13 03:19:28;;;;;;;1.90;0.57;;;15.60;81.10;;;;;;4900439;28;86778;-71
2022/07/13 03:21:54;;;;;;;2.00;0.57;;;15.60;80.80;;;;;;4892568;28;87562;-69
2022/07/13 03:24:20;;;;;;;1.80;0.40;;;15.60;80.60;;;;;;4898974;28;88261;-71
2022/07/13 03:26:45;;;;;;;1.75;0.43;;;15.60;80.50;;;;;;4897722;28;87562;-68
2022/07/13 03:29:11;;;;;;;2.55;0.57;;;15.60;81.30;;;;;;4899026;28;87118;-69
2022/07/13 03:31:37;;;;;;;3.58;0.40;;;15.50;81.70;;;;;;4901019;28;87023;-70
2022/07/13 03:34:02;;;;;;;2.65;0.70;;;15.50;81.30;;;;;;4893032;28;87098;-71
2022/07/13 03:36:30;;;;;;;3.25;0.65;;;15.50;82.00;;;;;;4899109;28;86920;-70
2022/07/13 03:38:56;;;;;;;2.88;0.50;;;15.40;82.20;;;;;;4896723;28;86660;-70
2022/07/13 03:41:22;;;;;;;8.73;0.70;;;15.40;82.30;;;;;;4892821;28;87686;-70
2022/07/13 03:43:47;;;;;;;3.33;0.50;;;15.40;82.40;;;;;;4893283;28;87764;-70
2022/07/13 03:46:13;;;;;;;4.90;0.57;;;15.40;82.60;;;;;;4895758;28;86855;-70
2022/07/13 03:48:39;;;;;;;3.13;0.80;;;15.30;82.60;;;;;;4896849;28;87867;-71
2022/07/13 03:51:05;;;;;;;2.38;0.50;;;15.30;82.60;;;;;;4895633;28;87033;-71
2022/07/13 03:53:31;;;;;;;2.13;0.57;;;15.30;82.50;;;;;;4895462;28;88295;-72
2022/07/13 03:55:56;;;;;;;4.38;0.60;;;15.40;82.00;;;;;;4894627;28;87044;-70
2022/07/13 03:58:22;;;;;;;2.65;0.70;;;15.40;81.70;;;;;;4892520;28;86903;-69
2022/07/13 04:00:48;;;;;;;2.08;0.47;;;15.40;81.40;;;;;;4894345;28;86695;-72
2022/07/13 04:03:13;;;;;;;2.42;0.55;;;15.50;80.90;;;;;;4897397;28;87622;-74
2022/07/13 04:05:39;;;;;;;2.70;0.40;;;15.60;80.40;;;;;;4907724;28;87726;-69
2022/07/13 04:08:05;;;;;;;4.40;0.50;;;15.90;79.20;;;;;;4897262;28;87720;-70
2022/07/13 04:10:30;;;;;;;2.33;0.40;;;16.20;78.10;;;;;;4902704;28;87295;-70
2022/07/13 04:12:58;;;;;;;1.67;0.50;;;16.40;77.60;;;;;;4894538;28;88407;-69
2022/07/13 04:15:24;;;;;;;2.80;0.70;;;16.70;77.10;;;;;;4896229;28;88007;-69
2022/07/13 04:17:50;;;;;;;2.47;0.68;;;16.90;75.30;;;;;;4898191;28;87364;-70
2022/07/13 04:20:15;;;;;;;2.03;0.30;;;17.20;73.20;;;;;;4905256;28;87431;-70
2022/07/13 04:22:41;;;;;;;1.38;0.63;;;17.50;72.90;;;;;;4893688;28;87213;-71
2022/07/13 04:25:08;;;;;;;2.05;0.63;;;17.60;72.00;;;;;;4895762;28;86881;-72
2022/07/13 04:27:34;;;;;;;3.28;0.50;;;17.80;71.70;;;;;;4897229;28;86894;-72
2022/07/13 04:30:00;;;;;;;4.28;0.60;;;18.20;70.80;;;;;;4897467;28;86205;-73
2022/07/13 04:32:26;;;;;;;4.57;0.50;;;18.40;69.90;;;;;;4895214;28;88093;-70
2022/07/13 04:34:52;;;;;;;1.83;0.50;;;19.00;67.30;;;;;;4895098;28;88523;-70
2022/07/13 04:37:17;;;;;;;2.15;0.55;;;19.30;65.10;;;;;;4908690;28;88252;-69
2022/07/13 04:39:43;;;;;;;5.50;0.40;;;19.70;64.30;;;;;;4897479;28;86886;-70
2022/07/13 04:42:09;;;;;;;4.35;0.43;;;19.90;63.40;;;;;;4897281;28;87917;-71
2022/07/13 04:44:34;;;;;;;1.55;0.30;;;20.30;61.40;;;;;;4896385;28;86999;-69
2022/07/13 04:47:00;;;;;;;1.98;0.30;;;20.40;62.00;;;;;;4893380;28;87111;-69
2022/07/13 04:49:26;;;;;;;4.55;0.63;;;20.60;61.30;;;;;;4884407;28;87208;-71
2022/07/13 04:51:51;;;;;;;4.63;0.60;;;20.90;59.30;;;;;;4893821;28;87255;-70
2022/07/13 04:54:18;;;;;;;4.25;0.32;;;21.60;58.10;;;;;;4894218;28;86933;-70
2022/07/13 04:56:44;;;;;;;4.63;0.70;;;22.50;54.70;;;;;;4896610;28;87176;-70
2022/07/13 04:59:10;;;;;;;5.00;0.57;;;23.30;53.00;;;;;;4897254;28;87122;-71
2022/07/13 05:01:36;;;;;;;1.83;0.43;;;24.10;50.70;;;;;;4877404;28;88663;-70
2022/07/13 05:04:02;;;;;;;4.63;0.60;;;24.60;50.40;;;;;;4885841;28;87135;-70
2022/07/13 05:06:28;;;;;;;7.05;0.88;;;25.30;49.10;;;;;;4898567;28;86629;-71
2022/07/13 05:08:54;;;;;;;1.92;0.43;;;25.60;47.50;;;;;;4900632;28;87040;-71
2022/07/13 05:11:20;;;;;;;4.43;0.63;;;26.30;46.50;;;;;;4914770;28;87091;-72
2022/07/13 05:13:46;;;;;;;5.55;0.50;;;26.70;45.40;;;;;;4912640;28;86978;-71
2022/07/13 05:16:12;;;;;;;3.13;0.40;;;26.90;45.80;;;;;;4892100;28;87050;-71
2022/07/13 05:18:38;;;;;;;3.35;0.60;;;27.30;44.90;;;;;;4900304;28;86354;-69
2022/07/13 05:21:03;;;;;;;3.60;0.50;;;27.60;42.80;;;;;;4900429;28;86900;-71
2022/07/13 05:23:29;;;;;;;1.35;0.50;;;28.20;42.70;;;;;;4898785;28;88654;-68
2022/07/13 05:25:55;;;;;;;3.95;0.50;;;28.40;42.30;;;;;;4899046;28;88356;-70
2022/07/13 05:28:21;;;;;;;2.55;0.52;;;28.50;42.30;;;;;;4900351;28;86896;-69
2022/07/13 05:30:46;;;;;;;4.82;0.65;;;28.90;41.20;;;;;;4899298;28;87711;-68
2022/07/13 05:33:14;;;;;;;4.88;0.68;;;29.60;39.60;;;;;;4892949;28;87328;-68
2022/07/13 05:35:40;;;;;;;6.25;0.82;;;29.80;38.40;;;;;;4900251;28;86800;-70
2022/07/13 05:38:06;;;;;;;1.73;0.75;;;29.70;39.60;;;;;;4906279;28;86973;-69
2022/07/13 05:40:32;;;;;;;3.33;0.50;;;30.40;39.70;;;;;;4897241;28;87975;-71
2022/07/13 05:42:58;;;;;;;2.08;1.02;;;30.70;38.40;;;;;;4900236;28;87776;-71
2022/07/13 05:45:25;;;;;;;2.50;0.70;;;31.10;39.40;;;;;;4909404;28;87384;-70
2022/07/13 05:47:51;;;;;;;2.40;0.73;;;30.60;37.90;;;;;;4898148;28;86679;-70
2022/07/13 05:50:16;;;;;;;4.38;0.82;;;31.70;36.30;;;;;;4900667;28;88343;-71
2022/07/13 05:52:42;;;;;;;2.35;0.98;;;31.70;37.60;;;;;;4906939;28;88760;-70
2022/07/13 05:55:11;;;;;;;3.42;0.63;;;32.50;36.30;;;;;;4902695;28;87486;-70
2022/07/13 05:57:37;;;;;;;5.65;0.75;;;32.80;34.80;;;;;;4894965;28;86783;-70
2022/07/13 06:00:06;;;;;;;4.45;0.88;;;33.40;36.10;;;;;;4902119;28;87196;-70
2022/07/13 06:02:32;;;;;;;3.00;0.93;;;34.50;35.30;;;;;;4923172;28;87206;-70
2022/07/13 06:04:57;;;;;;;3.15;0.77;;;35.40;33.90;;;;;;4912280;28;87105;-70
2022/07/13 06:07:24;;;;;;;2.88;0.63;;;35.70;32.60;;;;;;4897449;28;86642;-70
2022/07/13 06:09:49;;;;;;;3.08;0.82;;;35.30;33.10;;;;;;4902063;28;87226;-70
2022/07/13 06:12:15;;;;;;;3.08;0.80;;;35.60;33.60;;;;;;4902940;28;87131;-71
2022/07/13 06:14:41;;;;;;;2.05;1.05;;;36.10;33.20;;;;;;4915822;28;87945;-70
2022/07/13 06:17:06;;;;;;;10.65;0.93;;;35.80;32.20;;;;;;4892407;28;86808;-69
2022/07/13 06:19:33;;;;;;;4.55;1.25;;;36.40;31.40;;;;;;4910923;28;88421;-71
2022/07/13 06:21:59;;;;;;;2.78;0.80;;;36.10;31.90;;;;;;4912195;28;87094;-70
2022/07/13 06:24:25;;;;;;;1.70;1.13;;;36.50;31.80;;;;;;4898936;28;86868;-71
2022/07/13 06:26:51;;;;;;;5.35;0.98;;;36.50;31.40;;;;;;4898064;28;86984;-71
2022/07/13 06:29:17;;;;;;;2.85;1.00;;;36.20;32.10;;;;;;4898951;28;87216;-73
2022/07/13 06:31:43;;;;;;;3.25;0.98;;;37.40;31.20;;;;;;4896416;28;87308;-71
2022/07/13 06:34:08;;;;;;;4.88;1.58;;;37.80;30.30;;;;;;4898615;28;87574;-69
2022/07/13 06:36:34;;;;;;;4.32;0.90;;;37.10;30.40;;;;;;4899057;28;86998;-69
2022/07/13 06:39:01;;;;;;;1.63;1.20;;;37.80;30.70;;;;;;4893447;28;88044;-70
2022/07/13 06:41:27;;;;;;;3.92;1.33;;;38.30;30.00;;;;;;4886336;28;88167;-70
2022/07/13 06:43:53;;;;;;;3.83;1.10;;;38.40;29.40;;;;;;4895144;28;87083;-69
2022/07/13 06:46:18;;;;;;;3.88;1.85;;;38.00;29.50;;;;;;4899803;28;86916;-71
2022/07/13 06:48:44;;;;;;;4.72;0.98;;;37.90;30.40;;;;;;4879834;28;87638;-73
2022/07/13 06:51:11;;;;;;;7.80;1.42;;;38.30;30.00;;;;;;4893784;28;86983;-70
2022/07/13 06:53:36;;;;;;;6.00;0.93;;;37.80;29.90;;;;;;4911369;28;87753;-71
2022/07/13 06:56:03;;;;;;;2.28;1.42;;;38.10;30.00;;;;;;4919227;28;86090;-72
2022/07/13 06:58:29;;;;;;;4.70;1.10;;;38.90;29.90;;;;;;4898304;28;87702;-72
2022/07/13 07:00:55;;;;;;;3.65;1.48;;;39.80;28.90;;;;;;4889106;28;87197;-73
2022/07/13 07:03:20;;;;;;;4.28;2.15;;;40.10;29.30;;;;;;4896153;28;88077;-71
2022/07/13 07:05:46;;;;;;;2.05;1.73;;;41.00;28.80;;;;;;4898126;28;87321;-72
2022/07/13 07:08:12;;;;;;;3.65;1.23;;;41.40;29.00;;;;;;4899440;28;87467;-72
2022/07/13 07:10:38;;;;;;;2.60;1.30;;;41.40;28.90;;;;;;4898419;28;86946;-72
2022/07/13 07:13:03;;;;;;;6.50;2.03;;;42.60;28.40;;;;;;4890403;28;87428;-72
2022/07/13 07:15:29;;;;;;;4.93;1.58;;;44.10;27.70;;;;;;4899190;28;86937;-72
2022/07/13 07:17:55;;;;;;;2.83;1.55;;;44.00;27.80;;;;;;4889394;28;87729;-72
2022/07/13 07:20:21;;;;;;;3.95;1.83;;;43.50;27.00;;;;;;4890561;28;86871;-72
2022/07/13 07:22:46;;;;;;;1.90;1.30;;;42.60;28.40;;;;;;4888507;28;86979;-72
2022/07/13 07:25:12;;;;;;;6.78;1.27;;;42.80;28.20;;;;;;4895847;28;86996;-74
2022/07/13 07:27:40;;;;;;;2.35;2.15;;;42.80;28.40;;;;;;4892107;28;88029;-72
2022/07/13 07:30:06;;;;;;;4.55;1.55;;;43.40;28.20;;;;;;4895769;28;88111;-73
2022/07/13 07:32:33;;;;;;;2.15;1.58;;;43.30;27.40;;;;;;4896334;28;87098;-70
2022/07/13 07:34:59;;;;;;;4.90;2.67;;;42.70;28.40;;;;;;4890411;28;88149;-71
2022/07/13 07:37:25;;;;;;;9.45;2.25;;;43.00;27.60;;;;;;4895211;28;87275;-70
2022/07/13 07:39:51;;;;;;;5.35;2.22;;;41.60;28.40;;;;;;4884268;28;87141;-71
2022/07/13 07:42:17;;;;;;;2.10;1.55;;;42.00;28.40;;;;;;4892274;28;86993;-70
2022/07/13 07:44:44;;;;;;;4.30;1.67;;;44.10;28.00;;;;;;4896780;28;87221;-70
2022/07/13 07:47:10;;;;;;;4.35;2.58;;;45.60;27.60;;;;;;4897219;28;87255;-74
2022/07/13 07:49:36;;;;;;;3.08;2.25;;;45.90;27.10;;;;;;4898179;28;87037;-70
2022/07/13 07:52:02;;;;;;;3.83;2.17;;;46.70;26.00;;;;;;4895121;28;88091;-70
2022/07/13 07:54:28;;;;;;;6.25;2.17;;;46.30;26.60;;;;;;4903381;28;86691;-70
2022/07/13 07:56:53;;;;;;;5.20;2.83;;;45.10;27.10;;;;;;4897801;28;87009;-70
2022/07/13 07:59:19;;;;;;;4.55;2.42;;;46.10;27.70;;;;;;4897069;28;86922;-72
2022/07/13 08:01:45;;;;;;;4.63;2.75;;;46.50;26.70;;;;;;4890767;28;86986;-71
2022/07/13 08:04:10;;;;;;;6.30;2.42;;;47.70;26.40;;;;;;4878961;28;87395;-71
2022/07/13 08:06:38;;;;;;;3.30;2.40;;;48.20;25.60;;;;;;4881597;28;88331;-71
2022/07/13 08:09:04;;;;;;;5.35;2.38;;;49.00;25.70;;;;;;4892098;28;87750;-71
2022/07/13 08:11:30;;;;;;;4.35;2.67;;;49.30;25.00;;;;;;4886836;28;86985;-71
2022/07/13 08:13:56;;;;;;;3.95;3.55;;;49.00;25.50;;;;;;4878343;28;86677;-71
2022/07/13 08:16:21;;;;;;;3.85;3.40;;;50.30;25.50;;;;;;4890522;28;88068;-70
2022/07/13 08:18:47;;;;;;;4.45;3.45;;;50.20;25.60;;;;;;4877733;28;88096;-71
2022/07/13 08:21:13;;;;;;;4.40;4.00;;;51.30;25.20;;;;;;4880753;28;87111;-72
2022/07/13 08:23:51;;;;;;;7.80;3.60;;;50.50;25.30;;;;;;4894914;28;87161;-71
2022/07/13 08:26:21;;;;;;;5.88;4.55;;;50.60;25.30;;;;;;4892621;28;86978;-73
2022/07/13 08:28:47;;;;;;;5.38;4.13;;;51.20;24.30;;;;;;4886109;28;87024;-70
2022/07/13 08:31:14;;;;;;;7.95;3.95;;;50.00;24.80;;;;;;4890087;28;87359;-72
2022/07/13 08:39:09;;;;;;;6.28;4.38;;;49.40;25.20;;;;;;4896577;28;87027;-71
2022/07/13 08:41:35;;;;;;;5.30;4.80;;;48.70;25.20;;;;;;4895851;28;88089;-70
2022/07/13 08:44:02;;;;;;;5.15;3.63;;;47.70;25.30;;;;;;4900674;28;87094;-72
2022/07/13 08:46:28;;;;;;;5.70;3.60;;;48.90;24.90;;;;;;4899181;28;87303;-70
2022/07/13 08:48:55;;;;;;;4.88;4.38;;;48.60;25.00;;;;;;4898154;28;87421;-72
2022/07/13 08:51:23;;;;;;;3.95;3.13;;;47.50;26.20;;;;;;4897930;28;87427;-71
2022/07/13 08:53:51;;;;;;;4.97;4.18;;;49.30;25.20;;;;;;4912675;28;87358;-73
2022/07/13 08:56:17;;;;;;;5.40;4.05;;;49.10;25.20;;;;;;4919794;28;88762;-70
2022/07/13 08:58:43;;;;;;;4.53;4.13;;;47.30;25.70;;;;;;4917314;28;87759;-70
2022/07/13 09:01:10;;;;;;;5.20;4.70;;;46.40;26.10;;;;;;4900727;28;87354;-71
2022/07/13 09:03:36;;;;;;;4.10;3.75;;;47.70;26.20;;;;;;4894927;28;87104;-72
2022/07/13 09:06:02;;;;;;;7.78;4.50;;;50.00;25.60;;;;;;4897261;28;88108;-71
2022/07/13 09:08:28;;;;;;;6.70;6.20;;;52.70;25.60;;;;;;4900213;28;87161;-71
2022/07/13 09:10:58;;;;;;;6.28;5.78;;;54.60;24.90;;;;;;4900026;28;87317;-71
2022/07/13 09:13:38;;;;;;;8.25;7.45;;;55.40;24.10;;;;;;4899352;28;86811;-71
2022/07/13 09:16:26;;;;;;;7.70;7.10;;;55.60;25.00;;;;;;4897190;28;88651;-70
2022/07/13 09:18:53;;;;;;;8.95;8.10;;;55.80;25.30;;;;;;4899893;28;88625;-72
2022/07/13 09:21:22;;;;;;;8.38;7.47;;;55.00;25.40;;;;;;4900449;28;87014;-71
2022/07/13 09:23:58;;;;;;;8.55;7.85;;;53.90;26.20;;;;;;4899642;28;85826;-71
2022/07/13 09:26:46;;;;;;;7.85;7.20;;;54.10;25.90;;;;;;4898400;28;87293;-72
2022/07/13 09:29:13;;;;;;;11.30;8.27;;;54.90;25.50;;;;;;4899819;28;86880;-72
2022/07/13 09:31:52;;;;;;;9.15;8.25;;;53.10;26.10;;;;;;4899498;28;87908;-74
2022/07/13 09:34:18;;;;;;;8.52;7.60;;;52.80;26.60;;;;;;4897016;28;87367;-71
2022/07/13 09:36:44;;;;;;;6.85;6.30;;;52.20;26.10;;;;;;4898808;28;89369;-73
2022/07/13 09:39:10;;;;;;;7.63;7.03;;;52.50;26.80;;;;;;4895825;28;87990;-71
2022/07/13 09:41:36;;;;;;;9.32;8.45;;;52.20;26.30;;;;;;4891338;28;86919;-72
2022/07/13 09:46:56;;;;;;;8.52;7.82;;;52.50;26.40;;;;;;4897118;28;87010;-71
2022/07/13 09:49:37;;;;;;;7.82;7.13;;;53.20;26.30;;;;;;4896047;28;86340;-71
2022/07/13 09:52:05;;;;;;;9.40;8.48;;;53.90;26.10;;;;;;4898565;28;87123;-71
2022/07/13 09:54:32;;;;;;;10.18;9.38;;;54.80;26.10;;;;;;4905558;28;87659;-71
2022/07/13 09:57:00;;;;;;;7.78;7.18;;;55.50;26.00;;;;;;4898342;28;88439;-71
2022/07/13 09:59:30;;;;;;;8.77;8.07;;;55.20;25.40;;;;;;4899172;28;88447;-72
2022/07/13 10:01:56;;;;;;;6.78;6.18;;;55.60;25.40;;;;;;4899237;28;86871;-71
2022/07/13 10:04:23;;;;;;;6.72;6.13;;;55.90;25.00;;;;;;4898995;28;87291;-74
2022/07/13 10:06:52;;;;;;;8.23;7.45;;;55.00;25.30;;;;;;4895991;28;88716;-71
2022/07/13 10:09:23;;;;;;;8.90;6.72;;;54.00;25.50;;;;;;4898476;28;88329;-72
2022/07/13 10:11:49;;;;;;;8.55;7.88;;;52.40;25.80;;;;;;4899515;28;86986;-70
2022/07/13 10:14:17;;;;;;;7.80;7.20;;;51.10;26.20;;;;;;4899280;28;86661;-71
2022/07/13 10:16:44;;;;;;;6.47;5.35;;;50.00;27.20;;;;;;4892180;28;88931;-72
2022/07/13 10:19:10;;;;;;;7.88;4.22;;;47.00;27.80;;;;;;4899186;28;87356;-70
2022/07/13 10:21:49;;;;;;;4.50;3.30;;;44.10;28.80;;;;;;4893292;28;87886;-70
2022/07/13 10:24:16;;;;;;;4.22;3.38;;;41.20;30.00;;;;;;4897800;28;86948;-71
2022/07/13 10:26:42;;;;;;;3.92;2.72;;;38.90;32.50;;;;;;4895007;28;87886;-70
2022/07/13 10:29:10;;;;;;;6.18;3.10;;;37.70;33.70;;;;;;4879516;28;87078;-69
2022/07/13 10:31:36;;;;;;;6.90;2.63;;;35.80;35.90;;;;;;4898574;28;86946;-72
2022/07/13 10:34:03;;;;;;;3.90;2.13;;;35.10;38.00;;;;;;4898829;28;87729;-72
2022/07/13 10:36:51;;;;;;;3.17;1.80;;;34.50;40.30;;;;;;4899694;28;87377;-71
2022/07/13 10:39:18;;;;;;;5.72;1.45;;;34.10;42.50;;;;;;4900396;28;87639;-71
2022/07/13 10:42:00;;;;;;;3.58;1.63;;;33.80;41.10;;;;;;4898917;28;87094;-72
2022/07/13 10:44:36;;;;;;;4.03;2.00;;;33.40;40.80;;;;;;4899124;28;87104;-74
2022/07/13 10:47:07;;;;;;;3.28;1.50;;;33.30;42.00;;;;;;4897047;28;88066;-71
2022/07/13 10:49:35;;;;;;;4.93;1.13;;;32.80;41.30;;;;;;4899726;28;87147;-72
2022/07/13 10:52:23;;;;;;;2.58;1.23;;;32.60;43.70;;;;;;4892574;28;87092;-71
2022/07/13 10:55:05;;;;;;;2.38;1.38;;;32.40;43.40;;;;;;4905835;28;87676;-70
2022/07/13 10:57:36;;;;;;;1.80;0.90;;;32.70;44.30;;;;;;4899552;28;86979;-71
2022/07/13 11:00:18;;;;;;;1.33;0.90;;;33.10;42.60;;;;;;4897515;28;88402;-72
2022/07/13 11:03:02;;;;;;;4.05;1.00;;;33.30;41.40;;;;;;4886524;28;87520;-72
2022/07/13 11:05:35;;;;;;;1.17;0.77;;;33.20;38.80;;;;;;4880209;28;86317;-71
2022/07/13 11:08:15;;;;;;;3.70;1.83;;;33.10;38.30;;;;;;4887401;28;88099;-72
2022/07/13 11:10:41;;;;;;;1.60;1.25;;;33.10;39.60;;;;;;4890833;28;86705;-70
2022/07/13 11:13:14;;;;;;;1.98;1.02;;;32.80;41.90;;;;;;4895066;28;87709;-71
2022/07/13 11:15:56;;;;;;;1.33;0.73;;;32.20;42.60;;;;;;4888729;28;86951;-71
2022/07/13 11:18:21;;;;;;;4.45;1.25;;;32.40;42.10;;;;;;4881646;28;89064;-70
2022/07/13 11:20:58;;;;;;;1.60;1.00;;;32.60;42.40;;;;;;4895318;28;87351;-70
2022/07/13 11:26:27;;;;;;;5.80;0.82;;;32.10;40.80;;;;;;4901272;28;87064;-72
2022/07/13 11:29:29;;;;;;;2.45;1.00;;;31.40;42.40;;;;;;4901884;28;88386;-72
2022/07/13 11:31:59;;;;;;;3.95;0.80;;;31.30;42.60;;;;;;4898450;28;86239;-72
2022/07/13 11:34:26;;;;;;;6.10;0.88;;;31.50;40.10;;;;;;4898947;28;87036;-70
2022/07/13 11:36:55;;;;;;;2.35;1.20;;;31.80;42.10;;;;;;4901621;28;86641;-74
2022/07/13 11:39:30;;;;;;;1.38;0.82;;;32.00;40.70;;;;;;4901100;28;88306;-70
2022/07/13 11:41:58;;;;;;;2.05;0.90;;;32.00;39.50;;;;;;4892451;28;87339;-70
2022/07/13 11:44:31;;;;;;;2.05;0.77;;;32.00;39.70;;;;;;4889624;28;86836;-70
2022/07/13 11:46:58;;;;;;;2.47;0.77;;;32.20;40.20;;;;;;4889940;28;86957;-72
2022/07/13 11:49:24;;;;;;;1.60;0.95;;;32.00;41.40;;;;;;4877815;28;87282;-71
2022/07/13 11:51:51;;;;;;;3.33;1.08;;;31.50;40.00;;;;;;4886880;28;87898;-71
2022/07/13 11:54:19;;;;;;;2.47;0.82;;;31.20;43.90;;;;;;4899808;28;87534;-71
2022/07/13 11:56:54;;;;;;;2.35;0.75;;;31.00;41.20;;;;;;4917541;28;86671;-71
2022/07/13 11:59:39;;;;;;;1.33;0.73;;;31.10;40.10;;;;;;4917876;28;87314;-70
2022/07/13 12:02:11;;;;;;;1.98;0.82;;;31.20;42.70;;;;;;4907584;28;87380;-71
2022/07/13 12:04:44;;;;;;;1.42;0.65;;;31.10;40.30;;;;;;4898459;28;87891;-71
2022/07/13 12:07:13;;;;;;;2.00;0.95;;;31.00;42.40;;;;;;4898839;28;87087;-74
2022/07/13 12:09:55;;;;;;;9.07;1.38;;;31.00;42.80;;;;;;4898168;28;87249;-73
2022/07/13 12:12:22;;;;;;;;;;;31.10;41.40;;;;;;4897609;28;86831;-71
2022/07/13 12:14:50;;;;;;;1.67;0.98;;;31.20;43.10;;;;;;4900222;28;87628;-71
2022/07/13 12:17:16;;;;;;;1.50;0.75;;;31.20;41.70;;;;;;4897532;28;87391;-73
2022/07/13 12:19:42;;;;;;;4.30;0.93;;;31.20;40.30;;;;;;4898062;28;87089;-71
2022/07/13 12:22:07;;;;;;;2.45;0.73;;;30.90;41.90;;;;;;4889741;28;86842;-71
2022/07/13 12:24:34;;;;;;;2.78;1.02;;;30.80;41.30;;;;;;4891382;28;87437;-71
2022/07/13 12:27:00;;;;;;;1.75;0.80;;;30.90;42.70;;;;;;4896733;28;86776;-71
2022/07/13 12:29:33;;;;;;;1.83;0.60;;;31.50;41.30;;;;;;4886153;28;88602;-70
2022/07/13 12:32:00;;;;;;;1.98;0.90;;;31.90;40.70;;;;;;4878969;28;90004;-73
2022/07/13 12:34:26;;;;;;;0.90;0.52;;;32.30;40.80;;;;;;4879506;28;87010;-70
2022/07/13 12:36:52;;;;;;;1.50;0.90;;;32.60;39.40;;;;;;4886307;28;87421;-70
2022/07/13 12:39:37;;;;;;;1.92;0.93;;;33.20;38.40;;;;;;4898184;28;87108;-70
2022/07/13 12:42:03;;;;;;;1.27;0.88;;;33.40;36.40;;;;;;4898160;28;88085;-70
2022/07/13 12:44:32;;;;;;;4.05;0.70;;;32.90;38.40;;;;;;4898723;28;87479;-70
2022/07/13 12:47:02;;;;;;;4.78;1.13;;;32.90;39.10;;;;;;4897962;28;86285;-71
2022/07/13 12:49:37;;;;;;;3.80;0.75;;;33.20;38.50;;;;;;4897225;28;86902;-70
2022/07/13 12:52:08;;;;;;;2.35;0.90;;;33.70;38.00;;;;;;4898578;28;87032;-71
2022/07/13 12:54:51;;;;;;;3.65;1.05;;;33.50;38.10;;;;;;4916713;28;87853;-75
2022/07/13 12:57:18;;;;;;;1.98;0.90;;;33.00;39.30;;;;;;4917459;28;87488;-71
2022/07/13 13:00:08;;;;;;;3.50;0.90;;;32.60;39.30;;;;;;4900346;28;87305;-73
2022/07/13 13:02:35;;;;;;;2.10;0.98;;;32.10;40.90;;;;;;4878402;28;87258;-74
2022/07/13 13:05:01;;;;;;;1.67;0.90;;;32.10;43.40;;;;;;4879047;28;86863;-71
2022/07/13 13:07:27;;;;;;;1.20;0.98;;;32.30;41.20;;;;;;4878441;28;87073;-70
2022/07/13 13:09:53;;;;;;;5.00;1.00;;;32.10;39.90;;;;;;4887462;28;87142;-73
2022/07/13 13:12:19;;;;;;;2.85;1.42;;;31.50;42.10;;;;;;4898089;28;86261;-73
2022/07/13 13:14:44;;;;;;;1.90;0.60;;;31.30;40.20;;;;;;4898086;28;86956;-71
2022/07/13 13:17:10;;;;;;;1.73;0.65;;;30.80;41.00;;;;;;4898145;28;86702;-73
2022/07/13 13:19:36;;;;;;;2.80;1.02;;;30.50;41.70;;;;;;4896882;28;88385;-72
2022/07/13 13:22:03;;;;;;;2.45;0.60;;;30.60;42.20;;;;;;4898021;28;86978;-71
2022/07/13 13:24:29;;;;;;;1.23;0.30;;;30.60;42.90;;;;;;4897832;28;87204;-73
2022/07/13 13:26:54;;;;;;;1.20;0.82;;;30.80;41.10;;;;;;4898511;28;87453;-72
2022/07/13 13:32:05;;;;;;;1.88;0.35;;;31.00;40.00;;;;;;4900869;28;86729;-71
2022/07/13 13:34:30;;;;;;;0.90;0.50;;;31.10;38.50;;;;;;4901072;28;87030;-70
2022/07/13 13:36:56;;;;;;;1.05;0.55;;;30.90;39.90;;;;;;4901379;28;86257;-72
2022/07/13 13:39:22;;;;;;;1.30;0.73;;;31.00;39.50;;;;;;4900322;28;87288;-73
2022/07/13 13:41:48;;;;;;;1.10;0.45;;;30.80;38.70;;;;;;4900008;28;87866;-73
2022/07/13 13:44:15;;;;;;;1.42;0.50;;;30.90;39.00;;;;;;4900849;28;89222;-71
2022/07/13 13:46:41;;;;;;;6.00;0.60;;;30.80;41.40;;;;;;4900250;28;86853;-73
2022/07/13 13:49:07;;;;;;;2.00;0.77;;;30.60;41.00;;;;;;4900055;28;87037;-70
2022/07/13 13:51:33;;;;;;;2.78;0.60;;;30.60;41.40;;;;;;4900107;28;87104;-71
2022/07/13 13:53:59;;;;;;;5.28;1.10;;;30.30;40.00;;;;;;4916547;28;87001;-72
2022/07/13 13:56:25;;;;;;;2.00;0.60;;;30.30;41.90;;;;;;4920268;28;87031;-73
2022/07/13 13:58:50;;;;;;;3.03;0.65;;;30.30;39.60;;;;;;4920122;28;87693;-72
2022/07/13 14:01:16;;;;;;;2.08;0.60;;;30.30;42.40;;;;;;4900130;28;87399;-74
2022/07/13 14:03:43;;;;;;;2.72;0.40;;;30.40;40.30;;;;;;4887221;28;87096;-71
2022/07/13 14:06:09;;;;;;;2.60;0.50;;;30.40;37.40;;;;;;4880911;28;87019;-71
2022/07/13 14:08:35;;;;;;;2.28;0.63;;;30.60;38.30;;;;;;4880397;28;88428;-72
2022/07/13 14:11:01;;;;;;;2.72;0.38;;;30.70;38.50;;;;;;4896131;28;88294;-73
2022/07/13 14:13:27;;;;;;;2.22;0.68;;;30.60;38.10;;;;;;4900280;28;87402;-71
2022/07/13 14:15:52;;;;;;;8.43;0.65;;;30.60;35.30;;;;;;4901083;28;87398;-70
2022/07/13 14:18:20;;;;;;;6.28;0.60;;;30.70;37.30;;;;;;4900271;28;86983;-70
2022/07/13 14:20:46;;;;;;;2.35;1.38;;;30.90;36.00;;;;;;4899666;28;87416;-70
2022/07/13 14:23:11;;;;;;;1.40;0.30;;;31.00;36.50;;;;;;4900830;28;86860;-72
2022/07/13 14:25:37;;;;;;;2.50;0.50;;;31.10;37.50;;;;;;4900978;28;86113;-71
2022/07/13 14:28:03;;;;;;;3.13;0.45;;;31.20;36.50;;;;;;4899438;28;87248;-72
2022/07/13 14:30:29;;;;;;;2.58;0.55;;;31.10;35.70;;;;;;4899510;28;89244;-72
2022/07/13 14:32:55;;;;;;;2.17;0.30;;;30.70;35.50;;;;;;4900293;28;88268;-70
2022/07/13 14:35:22;;;;;;;0.77;0.40;;;30.40;37.50;;;;;;4900421;28;86297;-72
2022/07/13 14:37:48;;;;;;;3.70;0.60;;;30.50;36.80;;;;;;4899946;28;87710;-72
2022/07/13 14:40:14;;;;;;;2.22;0.40;;;30.60;37.10;;;;;;4898086;28;87148;-74
2022/07/13 14:42:40;;;;;;;2.75;0.40;;;30.70;37.30;;;;;;4899892;28;87125;-70
2022/07/13 14:45:06;;;;;;;2.55;0.40;;;31.00;37.60;;;;;;4900310;28;86956;-72
2022/07/13 14:47:32;;;;;;;4.60;0.65;;;31.30;36.40;;;;;;4898546;28;89117;-72
2022/07/13 14:49:58;;;;;;;1.58;0.30;;;31.40;37.10;;;;;;4898153;28;87159;-70
2022/07/13 14:52:24;;;;;;;2.58;0.60;;;31.40;37.10;;;;;;4902814;28;87532;-73
2022/07/13 14:54:50;;;;;;;1.38;0.45;;;31.60;37.30;;;;;;4919487;28;86945;-71
2022/07/13 14:57:15;;;;;;;2.88;0.40;;;31.50;36.10;;;;;;4918855;28;88350;-71
2022/07/13 14:59:41;;;;;;;1.27;0.50;;;31.30;37.10;;;;;;4908591;28;87808;-69
2022/07/13 15:02:07;;;;;;;1.27;0.45;;;31.30;36.20;;;;;;4907338;28;86885;-69
2022/07/13 15:04:39;;;;;;;0.85;0.40;;;31.40;36.20;;;;;;4901794;28;87426;-69
2022/07/13 15:07:06;;;;;;;1.30;0.32;;;31.30;36.40;;;;;;4904475;28;87251;-69
2022/07/13 15:09:32;;;;;;;0.93;0.68;;;31.20;35.00;;;;;;4902503;28;87004;-70
2022/07/13 15:11:58;;;;;;;1.33;0.32;;;31.20;34.10;;;;;;4903019;28;86481;-70
2022/07/13 15:14:24;;;;;;;3.10;0.38;;;31.00;36.20;;;;;;4902274;28;85951;-78
2022/07/13 15:16:50;;;;;;;2.28;0.43;;;30.90;35.90;;;;;;4899913;28;87966;-68
2022/07/13 15:19:17;;;;;;;1.80;0.98;;;30.90;36.20;;;;;;4900117;28;86902;-69
2022/07/13 15:21:43;;;;;;;2.47;0.43;;;30.90;36.40;;;;;;4894990;28;87768;-68
2022/07/13 15:24:09;;;;;;;3.10;0.32;;;31.00;36.60;;;;;;4904455;28;86969;-72
2022/07/13 15:26:35;;;;;;;0.98;0.30;;;30.90;36.40;;;;;;4901373;28;88335;-68
2022/07/13 15:29:02;;;;;;;1.42;1.05;;;30.80;37.20;;;;;;4898455;28;86942;-70
2022/07/13 15:31:28;;;;;;;3.33;0.47;;;30.70;36.50;;;;;;4893500;28;86649;-68
2022/07/13 15:33:57;;;;;;;1.55;0.50;;;30.70;36.10;;;;;;4888518;28;86719;-70
2022/07/13 15:36:26;;;;;;;2.28;0.50;;;30.80;37.80;;;;;;4899073;28;87088;-68
2022/07/13 15:38:53;;;;;;;4.30;0.50;;;30.70;37.70;;;;;;4898211;28;88468;-68
2022/07/13 15:41:25;;;;;;;2.50;0.50;;;30.60;39.20;;;;;;4891068;28;87033;-68
2022/07/13 15:44:01;;;;;;;0.88;0.47;;;30.50;41.10;;;;;;4886658;28;86796;-68
2022/07/13 15:46:29;;;;;;;3.30;0.85;;;30.50;40.50;;;;;;4884406;28;90605;-68
2022/07/13 15:48:56;;;;;;;1.08;0.55;;;30.60;40.50;;;;;;4888152;28;87956;-72
2022/07/13 15:51:22;;;;;;;1.15;0.40;;;30.80;39.40;;;;;;4906472;28;86831;-68